KHST/HST METAR and TAF weather

Enter ICAO airport designator
Station Type Date Time Source
KHST METAR 2020/07/15 03:56 UTC NOAA

KHST 150356Z AUTO 00000KT 10SM CLR 27/25 A3007 RMK AO2 SLP186 T02660253


Station Type Date Time Source
KHST Decoded METAR 2020/07/15 03:56 UTC NOAA

Homestead Air Force Base, FL, United States (KHST) 25-29N 080-23W
Jul 14, 2020 - 11:56 PM EDT / 2020.07.15 0356 UTC
Wind: Calm:0
Visibility: 10 mile(s):0
Sky conditions: clear
Temperature: 79.9 F (26.6 C)
Dew Point: 77.5 F (25.3 C)
Relative Humidity: 92%
Pressure (altimeter): 30.07 in. Hg (1018 hPa)
ob: KHST 150356Z AUTO 00000KT 10SM CLR 27/25 A3007 RMK AO2 SLP186 T02660253
cycle: 4

Station Type Date Time Source
KHST TAF 2020/07/15 03:52 UTC NOAA

TAF KHST 150300Z 1503/1609 VRB05KT 9999 FEW025 SCT200 QNH3001INS
BECMG 1517/1518 20008KT 9999 VCTS SCT035CB SCT050 SCT200 QNH3003INS
TEMPO 1519/1522 VRB12G19KT 4800 -TSRA BKN025CB
BECMG 1523/1524 23006KT 9999 NSW SCT030 SCT200 QNH3002INS TX33/1519Z TN25/1510Z

Example: see airport list